createdAt,value
2022-10-11T00:01:09.503Z,80.55
2022-10-11T00:03:36.159Z,80.17
2022-10-11T00:06:02.908Z,80.10
2022-10-11T00:08:29.765Z,79.47
2022-10-11T00:10:58.684Z,79.15
2022-10-11T00:13:25.320Z,78.59
2022-10-11T00:15:51.952Z,79.05
2022-10-11T00:18:18.458Z,78.81
2022-10-11T00:20:44.899Z,79.28
2022-10-11T00:23:11.490Z,80.55
2022-10-11T00:25:37.975Z,80.59
2022-10-11T00:28:04.749Z,80.65
2022-10-11T00:30:31.893Z,81.04
2022-10-11T00:32:58.395Z,81.97
2022-10-11T00:35:25.370Z,82.45
2022-10-11T00:37:52.381Z,82.36
2022-10-11T00:40:20.268Z,82.75
2022-10-11T00:42:46.754Z,82.64
2022-10-11T00:45:31.918Z,81.41
2022-10-11T00:48:03.242Z,80.93
2022-10-11T00:50:31.736Z,81.84
2022-10-11T00:53:01.858Z,82.42
2022-10-11T00:55:35.218Z,82.10
2022-10-11T00:58:01.855Z,81.72
2022-10-11T01:00:28.393Z,82.12
2022-10-11T01:02:55.072Z,82.35
2022-10-11T01:05:30.287Z,82.44
2022-10-11T01:07:59.407Z,82.36
2022-10-11T01:10:27.202Z,82.13
2022-10-11T01:12:59.499Z,82.62
2022-10-11T01:15:32.385Z,82.33
2022-10-11T01:18:06.855Z,82.11
2022-10-11T01:20:42.839Z,81.70
2022-10-11T01:23:24.201Z,80.61
2022-10-11T01:26:14.480Z,80.77
2022-10-11T01:29:08.536Z,80.52
2022-10-11T01:31:40.563Z,81.04
2022-10-11T01:34:31.188Z,80.54
2022-10-11T01:36:57.546Z,80.67
2022-10-11T01:39:25.324Z,79.78
2022-10-11T01:41:55.964Z,79.95
2022-10-11T01:44:24.319Z,80.05
2022-10-11T01:46:51.966Z,80.77
2022-10-11T01:49:18.527Z,81.08
2022-10-11T01:51:47.770Z,81.66
2022-10-11T01:55:04.383Z,81.81
2022-10-11T01:57:53.412Z,82.40
2022-10-11T02:00:23.079Z,82.04
2022-10-11T02:03:10.896Z,83.14
2022-10-11T02:05:56.578Z,82.74
2022-10-11T02:08:36.955Z,81.43
2022-10-11T02:11:23.110Z,82.04
2022-10-11T02:13:54.702Z,81.01
2022-10-11T02:16:31.516Z,80.79
2022-10-11T02:18:58.692Z,82.46
2022-10-11T02:21:27.605Z,83.77
2022-10-11T02:24:00.160Z,82.83
2022-10-11T02:26:29.364Z,82.33
2022-10-11T02:28:57.822Z,81.84
2022-10-11T02:31:25.145Z,82.02
2022-10-11T02:34:27.584Z,81.49
2022-10-11T02:37:16.706Z,81.01
2022-10-11T02:40:16.651Z,80.69
2022-10-11T02:42:46.411Z,80.35
2022-10-11T02:45:25.621Z,80.57
2022-10-11T02:47:52.587Z,80.17
2022-10-11T02:50:19.230Z,80.71
2022-10-11T02:52:45.741Z,79.82
2022-10-11T02:55:12.206Z,79.18
2022-10-11T02:57:38.723Z,78.88
2022-10-11T03:00:06.077Z,79.82
2022-10-11T03:02:32.562Z,79.59
2022-10-11T03:04:58.994Z,79.09
2022-10-11T03:07:26.355Z,79.61
2022-10-11T03:09:52.901Z,79.24
2022-10-11T03:12:19.453Z,79.76
2022-10-11T03:14:45.906Z,78.88
2022-10-11T03:17:35.001Z,79.34
2022-10-11T03:19:58.837Z,79.08
2022-10-11T03:22:25.362Z,79.68
2022-10-11T03:24:51.803Z,79.31
2022-10-11T03:27:18.279Z,79.68
2022-10-11T03:29:44.744Z,79.81
2022-10-11T03:32:11.203Z,79.19
2022-10-11T03:34:37.665Z,80.52
2022-10-11T03:37:04.182Z,80.98
2022-10-11T03:39:30.746Z,79.99
2022-10-11T03:41:57.196Z,80.59
2022-10-11T03:44:23.706Z,80.47
2022-10-11T03:46:50.285Z,80.51
2022-10-11T03:49:16.953Z,80.44
2022-10-11T03:51:43.470Z,80.66
2022-10-11T03:54:09.958Z,80.40
2022-10-11T03:56:36.427Z,80.15
2022-10-11T03:59:02.944Z,80.36
2022-10-11T04:01:29.473Z,80.78
2022-10-11T04:03:56.884Z,80.86
2022-10-11T04:06:23.688Z,80.95
2022-10-11T04:08:50.211Z,80.71
2022-10-11T04:11:16.661Z,82.00
2022-10-11T04:13:43.204Z,83.14
2022-10-11T04:16:09.668Z,82.57
2022-10-11T04:18:36.138Z,82.11
2022-10-11T04:21:02.698Z,82.97
2022-10-11T04:23:31.342Z,81.92
2022-10-11T04:25:57.956Z,82.84
2022-10-11T04:28:24.753Z,83.35
2022-10-11T04:30:51.997Z,83.15
2022-10-11T04:33:18.504Z,83.76
2022-10-11T04:35:46.189Z,83.09
2022-10-11T04:38:12.743Z,82.45
2022-10-11T04:40:39.530Z,81.74
2022-10-11T04:43:06.473Z,81.51
2022-10-11T04:45:33.062Z,82.66
2022-10-11T04:48:00.047Z,82.83
2022-10-11T04:50:26.671Z,82.78
2022-10-11T04:52:53.501Z,83.84
2022-10-11T04:55:20.071Z,84.22
2022-10-11T04:57:46.703Z,84.68
2022-10-11T05:00:13.606Z,84.20
2022-10-11T05:02:40.058Z,83.07
2022-10-11T05:05:07.091Z,82.66
2022-10-11T05:07:33.520Z,83.06
2022-10-11T05:09:59.952Z,83.71
2022-10-11T05:12:26.433Z,83.90
2022-10-11T05:14:52.996Z,83.45
2022-10-11T05:17:19.431Z,82.83
2022-10-11T05:19:45.916Z,83.06
2022-10-11T05:22:12.385Z,83.18
2022-10-11T05:24:38.853Z,83.49
2022-10-11T05:27:05.746Z,82.63
2022-10-11T05:29:32.271Z,82.79
2022-10-11T05:31:59.679Z,81.82
2022-10-11T05:34:26.336Z,81.37
2022-10-11T05:36:52.896Z,81.95
2022-10-11T05:39:19.428Z,82.91
2022-10-11T05:41:46.454Z,83.77
2022-10-11T05:44:13.366Z,83.44
2022-10-11T05:46:39.889Z,83.39
2022-10-11T05:49:06.518Z,84.26
2022-10-11T05:51:35.949Z,84.84
2022-10-11T05:54:02.392Z,84.96
2022-10-11T05:56:28.847Z,84.46
2022-10-11T05:58:59.909Z,84.18
2022-10-11T06:01:28.669Z,84.36
2022-10-11T06:03:55.285Z,84.14
2022-10-11T06:06:21.981Z,84.53
2022-10-11T06:08:48.971Z,84.53
2022-10-11T06:11:18.484Z,83.75
2022-10-11T06:13:45.131Z,83.39
2022-10-11T06:16:11.931Z,83.85
2022-10-11T06:18:38.380Z,84.06
2022-10-11T06:21:05.147Z,83.56
2022-10-11T06:23:31.881Z,83.58
2022-10-11T06:26:03.704Z,82.62
2022-10-11T06:28:30.586Z,82.75
2022-10-11T06:30:57.565Z,81.43
2022-10-11T06:33:24.385Z,81.21
2022-10-11T06:35:57.532Z,80.59
2022-10-11T06:38:23.989Z,80.98
2022-10-11T06:40:50.442Z,80.81
2022-10-11T06:43:16.910Z,80.26
2022-10-11T06:45:43.360Z,80.30
2022-10-11T06:48:09.853Z,80.72
2022-10-11T06:50:58.577Z,79.33
2022-10-11T06:53:24.543Z,78.62
2022-10-11T06:55:50.991Z,78.43
2022-10-11T06:58:17.502Z,78.59
2022-10-11T07:00:44.101Z,79.27
2022-10-11T07:03:10.567Z,79.75
2022-10-11T07:05:37.003Z,80.15
2022-10-11T07:08:03.626Z,79.39
2022-10-11T07:10:30.079Z,78.77
2022-10-11T07:12:56.506Z,78.20
2022-10-11T07:15:23.037Z,78.54
2022-10-11T07:17:49.498Z,77.96
2022-10-11T07:20:15.964Z,78.43
2022-10-11T07:22:42.405Z,77.37
2022-10-11T07:25:08.930Z,77.48
2022-10-11T07:27:35.409Z,76.62
2022-10-11T07:30:01.860Z,76.23
2022-10-11T07:32:28.299Z,76.56
2022-10-11T07:34:54.770Z,76.56
2022-10-11T07:37:21.205Z,74.11
2022-10-11T07:39:49.214Z,73.85
2022-10-11T07:42:15.671Z,73.81
2022-10-11T07:44:42.218Z,74.73
2022-10-11T07:47:11.280Z,74.44
2022-10-11T07:49:38.110Z,74.47
2022-10-11T07:52:04.866Z,73.96
2022-10-11T07:54:31.454Z,73.20
2022-10-11T07:56:57.903Z,71.59
2022-10-11T07:59:24.403Z,70.89
2022-10-11T08:01:50.992Z,70.73
2022-10-11T08:04:17.613Z,69.31
2022-10-11T08:06:44.085Z,70.84
2022-10-11T08:09:10.635Z,69.85
2022-10-11T08:11:37.790Z,68.97
2022-10-11T08:14:05.918Z,71.17
2022-10-11T08:16:32.427Z,70.50
2022-10-11T08:18:58.915Z,71.95
2022-10-11T08:21:25.405Z,72.45
2022-10-11T08:23:51.852Z,71.30
2022-10-11T08:26:18.325Z,71.49
2022-10-11T08:28:44.933Z,70.89
2022-10-11T08:31:13.364Z,70.96
2022-10-11T08:33:40.308Z,71.26
2022-10-11T08:36:07.755Z,72.11
2022-10-11T08:38:36.230Z,72.68
2022-10-11T08:41:02.754Z,72.97
2022-10-11T08:43:46.089Z,73.15
2022-10-11T08:46:14.271Z,73.76
2022-10-11T08:48:42.111Z,73.19
2022-10-11T08:51:23.296Z,73.01
2022-10-11T08:54:28.174Z,72.88
2022-10-11T08:56:54.811Z,73.16
2022-10-11T08:59:30.788Z,72.83
2022-10-11T09:02:04.938Z,74.45
2022-10-11T09:04:31.408Z,73.99
2022-10-11T09:07:20.013Z,73.69
2022-10-11T09:09:56.128Z,74.44
2022-10-11T09:12:56.185Z,74.48
2022-10-11T09:15:25.551Z,73.47
2022-10-11T09:17:57.860Z,73.70
2022-10-11T09:20:52.974Z,73.77
2022-10-11T09:23:35.122Z,74.30
2022-10-11T09:26:06.573Z,74.02
2022-10-11T09:28:47.413Z,73.77
2022-10-11T09:31:13.913Z,74.63
2022-10-11T09:33:45.558Z,74.92
2022-10-11T09:36:27.415Z,75.76
2022-10-11T09:38:56.723Z,75.82
2022-10-11T09:41:38.264Z,75.77
2022-10-11T09:44:06.680Z,76.37
2022-10-11T09:46:40.605Z,75.32
2022-10-11T09:49:14.546Z,75.07
2022-10-11T09:51:46.584Z,75.16
2022-10-11T09:54:13.069Z,75.11
2022-10-11T09:56:44.399Z,75.41
2022-10-11T09:59:29.117Z,75.57
2022-10-11T10:02:08.028Z,75.65
2022-10-11T10:04:35.447Z,75.47
2022-10-11T10:07:12.071Z,74.52
2022-10-11T10:09:38.606Z,75.34
2022-10-11T10:12:12.287Z,73.99
2022-10-11T10:14:40.545Z,73.15
2022-10-11T10:17:15.841Z,72.67
2022-10-11T10:19:48.347Z,72.00
2022-10-11T10:22:20.661Z,71.44
2022-10-11T10:24:48.210Z,71.73
2022-10-11T10:27:14.642Z,72.48
2022-10-11T10:29:41.457Z,72.49
2022-10-11T10:32:15.321Z,71.58
2022-10-11T10:34:55.403Z,71.55
2022-10-11T10:37:28.085Z,71.87
2022-10-11T10:40:22.636Z,71.02
2022-10-11T10:42:50.030Z,72.30
2022-10-11T10:45:21.496Z,72.79
2022-10-11T10:47:57.266Z,72.00
2022-10-11T10:50:32.836Z,71.44
2022-10-11T10:53:34.740Z,70.79
2022-10-11T10:56:28.269Z,70.70
2022-10-11T10:59:10.427Z,70.18
2022-10-11T11:01:50.271Z,71.79
2022-10-11T11:04:16.618Z,70.91
2022-10-11T11:07:03.251Z,70.60
2022-10-11T11:09:53.850Z,69.13
2022-10-11T11:12:36.327Z,68.83
2022-10-11T11:15:04.244Z,68.81
2022-10-11T11:17:53.338Z,69.04
2022-10-11T11:20:41.484Z,67.53
2022-10-11T11:23:21.093Z,67.55
2022-10-11T11:26:04.331Z,68.02
2022-10-11T11:28:52.553Z,67.70
2022-10-11T11:31:33.375Z,68.37
2022-10-11T11:34:17.788Z,68.17
2022-10-11T11:36:54.792Z,68.41
2022-10-11T11:39:31.029Z,68.04
2022-10-11T11:42:19.486Z,67.15
2022-10-11T11:44:47.653Z,68.05
2022-10-11T11:47:29.436Z,67.48
2022-10-11T11:49:59.549Z,65.73
2022-10-11T11:52:35.432Z,66.56
2022-10-11T11:55:08.545Z,65.65
2022-10-11T11:57:53.893Z,64.99
2022-10-11T12:00:22.417Z,64.23
2022-10-11T12:02:57.927Z,64.50
2022-10-11T12:05:31.121Z,64.49
2022-10-11T12:08:01.428Z,63.88
2022-10-11T12:10:52.870Z,64.07
2022-10-11T12:13:22.592Z,63.77
2022-10-11T12:16:03.644Z,64.55
2022-10-11T12:18:31.062Z,63.83
2022-10-11T12:21:17.584Z,63.29
2022-10-11T12:23:47.182Z,63.54
2022-10-11T12:26:28.925Z,63.79
2022-10-11T12:29:39.588Z,64.18
2022-10-11T12:32:05.971Z,64.13
2022-10-11T12:37:17.465Z,64.12
2022-10-11T12:39:53.814Z,65.08
2022-10-11T12:42:25.604Z,64.64
2022-10-11T12:45:21.259Z,64.24
2022-10-11T12:48:13.265Z,63.16
2022-10-11T12:51:03.255Z,62.89
2022-10-11T12:53:37.591Z,63.76
2022-10-11T12:56:40.876Z,62.89
2022-10-11T12:59:17.040Z,63.04
2022-10-11T13:01:57.628Z,63.62
2022-10-11T13:04:29.240Z,62.62
2022-10-11T13:07:05.877Z,62.44
2022-10-11T13:09:41.582Z,62.10
2022-10-11T13:12:15.321Z,63.05
2022-10-11T13:14:44.617Z,62.37
2022-10-11T13:17:25.254Z,63.33
2022-10-11T13:20:05.357Z,62.99
2022-10-11T13:22:34.128Z,62.64
2022-10-11T13:25:07.142Z,63.61
2022-10-11T13:27:33.821Z,63.35
2022-10-11T13:30:02.494Z,62.70
2022-10-11T13:32:30.880Z,62.56
2022-10-11T13:35:24.909Z,63.19
2022-10-11T13:37:51.783Z,62.24
2022-10-11T13:40:20.234Z,62.33
2022-10-11T13:42:47.883Z,62.84
2022-10-11T13:45:16.935Z,61.76
2022-10-11T13:47:43.638Z,62.79
2022-10-11T13:50:16.069Z,63.01
2022-10-11T13:53:02.584Z,63.24
2022-10-11T13:55:32.137Z,62.66
2022-10-11T13:58:00.241Z,63.29
2022-10-11T14:00:35.707Z,64.37
2022-10-11T14:03:02.353Z,64.15
2022-10-11T14:05:34.912Z,64.21
2022-10-11T14:08:20.096Z,63.20
2022-10-11T14:10:47.595Z,62.84
2022-10-11T14:13:32.934Z,62.84
2022-10-11T14:16:02.453Z,63.03
2022-10-11T14:18:58.288Z,63.40
2022-10-11T14:21:43.207Z,63.11
2022-10-11T14:24:09.944Z,62.55
2022-10-11T14:26:40.792Z,62.84
2022-10-11T14:29:27.379Z,63.43
2022-10-11T14:31:58.911Z,62.79
2022-10-11T14:34:25.905Z,62.74
2022-10-11T14:36:55.110Z,62.79
2022-10-11T14:39:23.665Z,63.49
2022-10-11T14:41:51.226Z,63.44
2022-10-11T14:44:18.551Z,63.47
2022-10-11T14:46:46.196Z,63.26
2022-10-11T14:49:16.695Z,61.44
2022-10-11T14:51:44.493Z,61.47
2022-10-11T14:54:11.441Z,62.49
2022-10-11T14:56:38.324Z,63.76
2022-10-11T14:59:04.975Z,63.49
2022-10-11T15:01:31.561Z,63.15
2022-10-11T15:03:58.048Z,62.66
2022-10-11T15:06:27.099Z,62.69
2022-10-11T15:08:54.268Z,61.50
2022-10-11T15:11:22.238Z,62.18
2022-10-11T15:13:51.246Z,61.98
2022-10-11T15:16:20.558Z,61.69
2022-10-11T15:18:48.300Z,61.76
2022-10-11T15:21:14.837Z,61.73
2022-10-11T15:23:41.482Z,62.03
2022-10-11T15:26:13.761Z,62.83
2022-10-11T15:28:40.450Z,62.86
2022-10-11T15:31:08.299Z,63.40
2022-10-11T15:33:35.193Z,63.37
2022-10-11T15:36:01.769Z,63.35
2022-10-11T15:38:28.589Z,63.28
2022-10-11T15:40:55.389Z,63.59
2022-10-11T15:43:24.787Z,64.11
2022-10-11T15:45:52.016Z,64.09
2022-10-11T15:48:19.119Z,63.83
2022-10-11T15:50:46.131Z,64.66
2022-10-11T15:53:20.916Z,64.29
2022-10-11T15:55:52.908Z,66.12
2022-10-11T15:58:23.085Z,64.89
2022-10-11T16:00:51.819Z,64.82
2022-10-11T16:03:18.622Z,65.10
2022-10-11T16:05:45.254Z,65.28
2022-10-11T16:08:11.854Z,65.82
2022-10-11T16:10:38.728Z,65.57
2022-10-11T16:13:05.603Z,65.62
2022-10-11T16:15:32.072Z,66.16
2022-10-11T16:17:58.683Z,66.23
2022-10-11T16:20:27.383Z,67.59
2022-10-11T16:22:54.455Z,68.37
2022-10-11T16:25:21.449Z,67.33
2022-10-11T16:27:47.947Z,67.29
2022-10-11T16:30:15.356Z,67.34
2022-10-11T16:32:41.967Z,67.65
2022-10-11T16:35:08.997Z,68.85
2022-10-11T16:37:35.638Z,68.15
2022-10-11T16:40:02.223Z,68.49
2022-10-11T16:42:28.778Z,68.84
2022-10-11T16:44:55.528Z,69.14
2022-10-11T16:47:22.119Z,69.05
2022-10-11T16:49:48.680Z,69.06
2022-10-11T16:52:15.337Z,69.82
2022-10-11T16:54:46.366Z,70.26
2022-10-11T16:57:18.036Z,69.36
2022-10-11T16:59:44.565Z,69.62
2022-10-11T17:02:17.273Z,69.55
2022-10-11T17:04:44.044Z,69.58
2022-10-11T17:07:10.596Z,70.09
2022-10-11T17:09:40.384Z,70.87
2022-10-11T17:12:11.809Z,71.86
2022-10-11T17:14:39.462Z,71.94
2022-10-11T17:17:07.679Z,72.51
2022-10-11T17:19:34.602Z,72.94
2022-10-11T17:22:01.058Z,73.86
2022-10-11T17:24:27.618Z,73.51
2022-10-11T17:26:54.370Z,73.67
2022-10-11T17:29:21.196Z,74.29
2022-10-11T17:31:49.370Z,73.59
2022-10-11T17:34:16.646Z,74.36
2022-10-11T17:36:43.155Z,74.26
2022-10-11T17:39:15.912Z,74.70
2022-10-11T17:41:43.158Z,75.54
2022-10-11T17:44:10.430Z,75.41
2022-10-11T17:46:37.947Z,75.94
2022-10-11T17:49:08.313Z,76.16
2022-10-11T17:51:36.409Z,76.10
2022-10-11T17:54:03.711Z,75.59
2022-10-11T17:56:33.645Z,76.44
2022-10-11T17:59:01.644Z,76.81
2022-10-11T18:01:29.116Z,76.25
2022-10-11T18:04:01.407Z,76.23
2022-10-11T18:06:29.897Z,75.98
2022-10-11T18:08:56.886Z,76.15
2022-10-11T18:11:23.849Z,75.57
2022-10-11T18:13:52.562Z,74.38
2022-10-11T18:16:23.378Z,74.41
2022-10-11T18:18:49.927Z,74.31
2022-10-11T18:21:16.940Z,73.99
2022-10-11T18:23:43.584Z,73.37
2022-10-11T18:26:15.728Z,73.61
2022-10-11T18:28:42.970Z,74.16
2022-10-11T18:31:13.614Z,73.95
2022-10-11T18:33:41.216Z,73.92
2022-10-11T18:36:09.247Z,73.96
2022-10-11T18:38:36.233Z,73.79
2022-10-11T18:41:10.713Z,73.75
2022-10-11T18:43:38.371Z,74.89
2022-10-11T18:46:11.535Z,76.87
2022-10-11T18:48:42.473Z,76.82
2022-10-11T18:51:12.250Z,77.39
2022-10-11T18:53:38.913Z,77.60
2022-10-11T18:56:07.742Z,77.70
2022-10-11T18:58:35.611Z,78.74
2022-10-11T19:01:16.808Z,78.72
2022-10-11T19:03:45.448Z,79.46
2022-10-11T19:06:14.949Z,79.16
2022-10-11T19:08:41.502Z,79.45
2022-10-11T19:11:09.190Z,79.26
2022-10-11T19:13:36.045Z,79.27
2022-10-11T19:16:07.599Z,80.11
2022-10-11T19:18:34.601Z,79.59
2022-10-11T19:21:02.729Z,78.94
2022-10-11T19:23:38.120Z,78.07
2022-10-11T19:26:09.485Z,77.11
2022-10-11T19:28:36.226Z,76.36
2022-10-11T19:31:08.914Z,76.44
2022-10-11T19:33:36.159Z,75.79
2022-10-11T19:36:05.981Z,75.72
2022-10-11T19:38:33.391Z,76.17
2022-10-11T19:41:00.653Z,75.80
2022-10-11T19:43:27.986Z,75.80
2022-10-11T19:46:01.901Z,75.49
2022-10-11T19:48:28.791Z,75.14
2022-10-11T19:51:10.000Z,76.42
2022-10-11T19:53:36.519Z,78.10
2022-10-11T19:56:06.119Z,76.86
2022-10-11T19:58:32.650Z,77.74
2022-10-11T20:01:07.024Z,78.21
2022-10-11T20:03:33.975Z,78.19
2022-10-11T20:06:01.948Z,79.00
2022-10-11T20:08:28.572Z,79.87
2022-10-11T20:10:55.124Z,80.52
2022-10-11T20:13:21.691Z,80.27
2022-10-11T20:15:48.238Z,80.02
2022-10-11T20:18:14.955Z,80.01
2022-10-11T20:20:54.131Z,79.70
2022-10-11T20:23:25.142Z,80.04
2022-10-11T20:26:03.892Z,80.91
2022-10-11T20:28:32.043Z,81.49
2022-10-11T20:31:00.346Z,81.78
2022-10-11T20:33:28.516Z,81.95
2022-10-11T20:36:03.127Z,81.70
2022-10-11T20:38:30.810Z,82.02
2022-10-11T20:40:58.003Z,82.35
2022-10-11T20:43:25.031Z,82.35
2022-10-11T20:46:03.169Z,82.50
2022-10-11T20:48:30.758Z,83.01
2022-10-11T20:50:57.456Z,82.52
2022-10-11T20:53:24.645Z,82.37
2022-10-11T20:55:54.329Z,82.21
2022-10-11T20:58:22.006Z,82.59
2022-10-11T21:00:48.763Z,82.52
2022-10-11T21:03:15.925Z,81.33
2022-10-11T21:05:42.464Z,80.92
2022-10-11T21:08:09.483Z,81.53
2022-10-11T21:10:36.077Z,81.39
2022-10-11T21:13:02.711Z,81.18
2022-10-11T21:15:30.657Z,80.61
2022-10-11T21:17:57.278Z,81.22
2022-10-11T21:20:24.559Z,81.17
2022-10-11T21:22:51.292Z,80.70
2022-10-11T21:25:18.983Z,81.21
2022-10-11T21:27:45.409Z,80.24
2022-10-11T21:30:11.926Z,80.25
2022-10-11T21:32:38.463Z,78.70
2022-10-11T21:35:05.017Z,78.84
2022-10-11T21:37:31.933Z,78.32
2022-10-11T21:40:00.521Z,78.25
2022-10-11T21:42:29.533Z,78.39
2022-10-11T21:44:56.198Z,77.75
2022-10-11T21:47:22.733Z,77.65
2022-10-11T21:49:49.246Z,76.95
2022-10-11T21:52:15.900Z,78.06
2022-10-11T21:54:42.381Z,77.87
2022-10-11T21:57:08.978Z,77.84
2022-10-11T21:59:35.433Z,77.82
2022-10-11T22:02:02.348Z,78.78
2022-10-11T22:04:28.990Z,78.41
2022-10-11T22:06:55.535Z,78.49
2022-10-11T22:09:22.265Z,77.90
2022-10-11T22:11:48.849Z,77.79
2022-10-11T22:14:15.289Z,78.44
2022-10-11T22:16:41.740Z,80.57
2022-10-11T22:19:08.255Z,79.80
2022-10-11T22:21:34.726Z,80.98
2022-10-11T22:24:01.319Z,81.04
2022-10-11T22:26:29.628Z,80.95
2022-10-11T22:28:57.201Z,81.53
2022-10-11T22:31:23.744Z,81.67
2022-10-11T22:33:54.552Z,81.06
2022-10-11T22:36:21.017Z,81.17
2022-10-11T22:38:47.510Z,81.76
2022-10-11T22:41:14.107Z,81.59
2022-10-11T22:43:40.597Z,82.93
2022-10-11T22:46:07.755Z,84.01
2022-10-11T22:48:34.347Z,84.24
2022-10-11T22:51:01.373Z,83.55
2022-10-11T22:53:27.911Z,83.49
2022-10-11T22:55:54.508Z,83.62
2022-10-11T22:58:21.232Z,82.91
2022-10-11T23:00:48.507Z,82.93
2022-10-11T23:03:16.044Z,83.16
2022-10-11T23:05:42.754Z,83.14
2022-10-11T23:08:09.906Z,83.48
2022-10-11T23:10:40.045Z,83.00
2022-10-11T23:13:06.585Z,82.56
2022-10-11T23:15:33.094Z,81.71
2022-10-11T23:17:59.637Z,81.93
2022-10-11T23:20:26.119Z,82.59
2022-10-11T23:22:52.533Z,82.42
2022-10-11T23:25:19.092Z,82.85
2022-10-11T23:27:45.528Z,82.71
2022-10-11T23:30:12.740Z,83.30
2022-10-11T23:32:39.184Z,83.76
2022-10-11T23:35:06.018Z,83.69
2022-10-11T23:37:32.471Z,83.63
2022-10-11T23:39:59.025Z,84.15
2022-10-11T23:42:25.551Z,84.09
2022-10-11T23:44:52.010Z,82.93
2022-10-11T23:47:18.590Z,82.92
2022-10-11T23:49:45.095Z,83.86
2022-10-11T23:52:11.555Z,83.50
2022-10-11T23:54:38.003Z,83.42
2022-10-11T23:57:04.460Z,83.18
2022-10-11T23:59:31.022Z,83.81
